IAH weather

George Bush Intercontinental Houston Airport
Houston, Texas, United States

Public forecast

Using degrees Fahrenheit for public forecast. Weather courtesy of forecast.io.

METAR (pilot weather report)

Retrieved 2017/12/10 21:53 UTC (1 hour ago):

KIAH 102153Z 30006KT 10SM BKN250 17/00 A3036 RMK AO2 SLP283 T01720000

TAF (pilot weather forecast)

Retrieved 2017/12/10 18:42 UTC (4 hours ago):

TAF KIAH 101739Z 1018/1124 26004KT P6SM SCT250 FM110200 00000KT P6SM SCT250 FM111600 28006KT P6SM SCT250